createdAt,value
2022-12-24T00:01:35.485Z,98475.72
2022-12-24T00:04:02.092Z,98486.75
2022-12-24T00:06:28.462Z,98484.22
2022-12-24T00:08:54.865Z,98504.63
2022-12-24T00:11:21.865Z,98509.38
2022-12-24T00:13:48.990Z,98517.06
2022-12-24T00:16:15.822Z,98503.00
2022-12-24T00:18:46.398Z,98512.47
2022-12-24T00:21:14.761Z,98503.97
2022-12-24T00:23:41.211Z,98505.78
2022-12-24T00:26:07.827Z,98518.13
2022-12-24T00:28:34.250Z,98520.09
2022-12-24T00:31:06.700Z,98525.91
2022-12-24T00:33:33.146Z,98525.47
2022-12-24T00:35:59.573Z,98538.34
2022-12-24T00:38:25.949Z,98530.53
2022-12-24T00:40:52.282Z,98525.78
2022-12-24T00:43:18.665Z,98529.63
2022-12-24T00:45:45.097Z,98529.09
2022-12-24T00:48:11.530Z,98527.72
2022-12-24T00:50:37.904Z,98527.19
2022-12-24T00:53:04.353Z,98519.31
2022-12-24T00:55:30.792Z,98530.88
2022-12-24T00:57:57.191Z,98533.41
2022-12-24T01:00:23.571Z,98530.63
2022-12-24T01:02:50.190Z,98529.47
2022-12-24T01:05:20.576Z,98527.00
2022-12-24T01:07:48.194Z,98524.00
2022-12-24T01:10:17.894Z,98531.50
2022-12-24T01:12:44.919Z,98529.25
2022-12-24T01:15:12.642Z,98529.34
2022-12-24T01:17:39.937Z,98541.31
2022-12-24T01:20:09.261Z,98536.09
2022-12-24T01:22:35.810Z,98530.91
2022-12-24T01:25:02.179Z,98535.72
2022-12-24T01:27:28.615Z,98552.31
2022-12-24T01:29:54.990Z,98562.66
2022-12-24T01:32:21.372Z,98555.41
2022-12-24T01:34:47.745Z,98556.00
2022-12-24T01:37:14.218Z,98563.72
2022-12-24T01:39:40.667Z,98567.00
2022-12-24T01:42:43.880Z,98570.53
2022-12-24T01:45:47.931Z,98572.91
2022-12-24T01:48:39.813Z,98576.13
2022-12-24T01:51:33.852Z,98572.94
2022-12-24T01:54:29.226Z,98579.84
2022-12-24T01:57:04.480Z,98578.84
2022-12-24T01:59:32.468Z,98588.03
2022-12-24T02:02:00.049Z,98598.09
2022-12-24T02:04:38.841Z,98594.50
2022-12-24T02:07:05.657Z,98586.63
2022-12-24T02:09:33.840Z,98604.06
2022-12-24T02:12:00.942Z,98599.72
2022-12-24T02:14:29.241Z,98604.19
2022-12-24T02:17:36.360Z,98606.06
2022-12-24T02:20:34.702Z,98617.47
2022-12-24T02:23:38.083Z,98617.25
2022-12-24T02:26:08.054Z,98615.41
2022-12-24T02:28:56.923Z,98628.19
2022-12-24T02:31:27.491Z,98626.50
2022-12-24T02:34:06.308Z,98635.75
2022-12-24T02:36:39.740Z,98645.88
2022-12-24T02:39:11.569Z,98643.94
2022-12-24T02:42:01.457Z,98633.31
2022-12-24T02:44:30.306Z,98650.13
2022-12-24T02:46:59.049Z,98660.44
2022-12-24T02:49:25.519Z,98655.88
2022-12-24T02:51:51.925Z,98662.91
2022-12-24T02:54:18.808Z,98661.16
2022-12-24T02:56:58.228Z,98665.22
2022-12-24T02:59:42.481Z,98660.00
2022-12-24T03:02:24.285Z,98662.38
2022-12-24T03:04:53.554Z,98670.56
2022-12-24T03:07:36.825Z,98664.63
2022-12-24T03:10:15.382Z,98675.78
2022-12-24T03:12:46.934Z,98664.44
2022-12-24T03:15:17.208Z,98671.63
2022-12-24T03:17:47.132Z,98669.63
2022-12-24T03:20:19.233Z,98666.13
2022-12-24T03:22:45.618Z,98669.56
2022-12-24T03:25:12.006Z,98676.41
2022-12-24T03:27:39.323Z,98670.50
2022-12-24T03:30:12.604Z,98678.69
2022-12-24T03:32:39.363Z,98684.72
2022-12-24T03:35:08.338Z,98695.44
2022-12-24T03:37:34.770Z,98698.88
2022-12-24T03:40:01.370Z,98719.09
2022-12-24T03:42:27.804Z,98736.84
2022-12-24T03:44:54.181Z,98724.13
2022-12-24T03:47:20.581Z,98730.59
2022-12-24T03:49:46.926Z,98735.75
2022-12-24T03:52:13.353Z,98728.69
2022-12-24T03:54:39.822Z,98744.09
2022-12-24T03:57:06.223Z,98746.09
2022-12-24T03:59:32.638Z,98747.53
2022-12-24T04:01:59.266Z,98741.72
2022-12-24T04:04:26.107Z,98739.81
2022-12-24T04:06:52.484Z,98738.50
2022-12-24T04:09:19.680Z,98755.31
2022-12-24T04:11:46.077Z,98753.47
2022-12-24T04:14:12.413Z,98742.09
2022-12-24T04:16:38.772Z,98739.94
2022-12-24T04:19:05.246Z,98747.16
2022-12-24T04:21:31.666Z,98743.34
2022-12-24T04:23:58.031Z,98736.22
2022-12-24T04:26:24.466Z,98735.81
2022-12-24T04:28:50.926Z,98755.69
2022-12-24T04:31:17.980Z,98767.91
2022-12-24T04:33:45.415Z,98772.97
2022-12-24T04:36:14.902Z,98776.88
2022-12-24T04:38:41.268Z,98796.19
2022-12-24T04:41:16.016Z,98802.97
2022-12-24T04:43:47.379Z,98837.75
2022-12-24T04:46:20.252Z,98821.84
2022-12-24T04:48:49.395Z,98819.03
2022-12-24T04:51:16.557Z,98824.66
2022-12-24T04:53:43.653Z,98819.63
2022-12-24T04:56:19.639Z,98805.78
2022-12-24T04:58:46.131Z,98816.81
2022-12-24T05:01:23.865Z,98807.47
2022-12-24T05:03:51.451Z,98814.81
2022-12-24T05:06:23.452Z,98815.41
2022-12-24T05:08:50.203Z,98808.63
2022-12-24T05:11:17.029Z,98810.75
2022-12-24T05:13:47.432Z,98808.50
2022-12-24T05:16:16.567Z,98819.50
2022-12-24T05:18:43.370Z,98803.59
2022-12-24T05:21:21.877Z,98803.75
2022-12-24T05:24:07.662Z,98811.06
2022-12-24T05:26:39.294Z,98810.47
2022-12-24T05:29:07.436Z,98808.94
2022-12-24T05:31:34.344Z,98816.97
2022-12-24T05:34:01.863Z,98816.28
2022-12-24T05:36:28.324Z,98812.03
2022-12-24T05:38:54.770Z,98810.38
2022-12-24T05:41:21.888Z,98806.13
2022-12-24T05:43:48.377Z,98809.91
2022-12-24T05:46:17.230Z,98811.19
2022-12-24T05:48:43.671Z,98816.28
2022-12-24T05:51:12.995Z,98812.59
2022-12-24T05:53:40.512Z,98812.59
2022-12-24T05:56:12.373Z,98832.28
2022-12-24T05:58:39.801Z,98828.59
2022-12-24T06:01:07.433Z,98837.34
2022-12-24T06:03:34.625Z,98834.50
2022-12-24T06:06:08.681Z,98833.13
2022-12-24T06:08:36.412Z,98840.56
2022-12-24T06:11:06.243Z,98841.41
2022-12-24T06:13:33.544Z,98836.50
2022-12-24T06:16:02.350Z,98838.22
2022-12-24T06:18:30.737Z,98841.03
2022-12-24T06:20:58.558Z,98845.78
2022-12-24T06:23:25.627Z,98846.75
2022-12-24T06:25:55.659Z,98843.53
2022-12-24T06:28:22.009Z,98851.16
2022-12-24T06:30:50.264Z,98855.09
2022-12-24T06:33:17.543Z,98854.41
2022-12-24T06:35:47.697Z,98854.09
2022-12-24T06:38:15.306Z,98862.44
2022-12-24T06:40:43.410Z,98864.09
2022-12-24T06:43:10.431Z,98857.34
2022-12-24T06:45:37.166Z,98870.44
2022-12-24T06:48:03.835Z,98869.88
2022-12-24T06:50:30.661Z,98865.22
2022-12-24T06:52:57.024Z,98877.59
2022-12-24T06:55:23.385Z,98867.75
2022-12-24T06:57:58.048Z,98878.28
2022-12-24T07:00:24.664Z,98887.59
2022-12-24T07:02:52.295Z,98889.00
2022-12-24T07:05:19.083Z,98883.09
2022-12-24T07:07:45.506Z,98898.56
2022-12-24T07:10:14.718Z,98895.31
2022-12-24T07:12:41.645Z,98897.63
2022-12-24T07:15:09.433Z,98895.50
2022-12-24T07:17:36.041Z,98888.03
2022-12-24T07:20:03.066Z,98894.22
2022-12-24T07:22:29.493Z,98892.69
2022-12-24T07:24:55.849Z,98897.47
2022-12-24T07:27:23.262Z,98916.91
2022-12-24T07:29:50.936Z,98917.31
2022-12-24T07:32:17.421Z,98921.28
2022-12-24T07:34:43.771Z,98926.19
2022-12-24T07:37:10.141Z,98934.34
2022-12-24T07:39:36.511Z,98937.31
2022-12-24T07:42:05.490Z,98942.09
2022-12-24T07:44:31.859Z,98945.78
2022-12-24T07:46:58.353Z,98946.03
2022-12-24T07:49:24.822Z,98943.78
2022-12-24T07:51:51.282Z,98945.78
2022-12-24T07:54:17.678Z,98951.94
2022-12-24T07:56:44.208Z,98944.75
2022-12-24T07:59:13.509Z,98944.34
2022-12-24T08:01:40.444Z,98944.06
2022-12-24T08:04:07.066Z,98947.44
2022-12-24T08:06:33.649Z,98945.75
2022-12-24T08:09:00.037Z,98947.44
2022-12-24T08:11:26.465Z,98951.38
2022-12-24T08:13:52.819Z,98959.53
2022-12-24T08:16:19.224Z,98961.34
2022-12-24T08:18:45.696Z,98964.34
2022-12-24T08:21:12.071Z,98968.81
2022-12-24T08:23:38.856Z,98958.66
2022-12-24T08:26:09.449Z,98967.13
2022-12-24T08:28:36.326Z,98971.06
2022-12-24T08:31:02.864Z,98962.63
2022-12-24T08:33:29.322Z,98959.22
2022-12-24T08:35:56.308Z,98969.94
2022-12-24T08:38:22.997Z,98974.72
2022-12-24T08:40:49.946Z,98972.47
2022-12-24T08:43:17.554Z,98965.31
2022-12-24T08:45:44.251Z,98973.34
2022-12-24T08:48:11.354Z,98977.81
2022-12-24T08:50:41.612Z,98990.47
2022-12-24T08:53:09.270Z,98982.41
2022-12-24T08:55:36.260Z,98982.28
2022-12-24T08:58:03.340Z,98992.38
2022-12-24T09:00:29.734Z,98990.72
2022-12-24T09:02:57.425Z,98992.66
2022-12-24T09:05:23.896Z,98987.00
2022-12-24T09:07:50.262Z,98985.88
2022-12-24T09:10:17.184Z,98984.44
2022-12-24T09:12:43.596Z,98979.63
2022-12-24T09:15:10.396Z,98982.56
2022-12-24T09:17:37.183Z,98986.91
2022-12-24T09:20:06.722Z,98995.97
2022-12-24T09:22:38.024Z,99003.72
2022-12-24T09:25:06.211Z,99003.16
2022-12-24T09:27:32.784Z,99009.38
2022-12-24T09:29:59.181Z,99015.69
2022-12-24T09:32:25.612Z,99019.63
2022-12-24T09:34:51.984Z,99026.41
2022-12-24T09:37:18.460Z,99035.13
2022-12-24T09:39:44.922Z,99040.50
2022-12-24T09:42:28.140Z,99048.53
2022-12-24T09:45:15.793Z,99045.03
2022-12-24T09:47:50.705Z,99049.78
2022-12-24T09:50:32.211Z,99052.03
2022-12-24T09:53:03.550Z,99057.94
2022-12-24T09:55:42.857Z,99057.63
2022-12-24T09:58:20.510Z,99050.69
2022-12-24T10:00:50.057Z,99052.94
2022-12-24T10:03:17.773Z,99046.81
2022-12-24T10:05:55.374Z,99046.47
2022-12-24T10:08:41.099Z,99050.97
2022-12-24T10:11:17.353Z,99055.50
2022-12-24T10:14:08.748Z,99061.25
2022-12-24T10:16:52.588Z,99067.59
2022-12-24T10:19:40.800Z,99070.16
2022-12-24T10:22:16.189Z,99064.22
2022-12-24T10:24:58.081Z,99063.41
2022-12-24T10:27:30.771Z,99074.00
2022-12-24T10:30:17.576Z,99065.84
2022-12-24T10:32:44.416Z,99060.88
2022-12-24T10:35:16.553Z,99058.34
2022-12-24T10:37:44.919Z,99053.97
2022-12-24T10:40:23.804Z,99062.03
2022-12-24T10:42:51.678Z,99060.63
2022-12-24T10:45:22.914Z,99063.69
2022-12-24T10:47:55.205Z,99067.94
2022-12-24T10:50:30.975Z,99067.94
2022-12-24T10:53:07.018Z,99070.47
2022-12-24T10:55:33.399Z,99066.09
2022-12-24T10:58:07.295Z,99078.91
2022-12-24T11:00:36.717Z,99079.75
2022-12-24T11:03:34.075Z,99077.81
2022-12-24T11:06:04.828Z,99060.88
2022-12-24T11:08:31.594Z,99065.41
2022-12-24T11:10:59.049Z,99058.56
2022-12-24T11:13:57.263Z,99051.22
2022-12-24T11:16:33.517Z,99053.88
2022-12-24T11:19:02.996Z,99064.78
2022-12-24T11:21:34.608Z,99056.56
2022-12-24T11:24:13.359Z,99055.75
2022-12-24T11:26:43.007Z,99063.03
2022-12-24T11:29:16.836Z,99062.81
2022-12-24T11:31:45.054Z,99057.91
2022-12-24T11:34:31.675Z,99050.00
2022-12-24T11:37:16.312Z,99057.66
2022-12-24T11:39:52.279Z,99046.38
2022-12-24T11:42:33.593Z,99057.81
2022-12-24T11:45:03.045Z,99059.94
2022-12-24T11:47:40.453Z,99072.69
2022-12-24T11:50:28.739Z,99057.25
2022-12-24T11:53:03.829Z,99058.28
2022-12-24T11:55:48.355Z,99068.19
2022-12-24T11:58:26.632Z,99063.53
2022-12-24T12:01:15.766Z,99064.31
2022-12-24T12:03:48.199Z,99068.09
2022-12-24T12:06:28.857Z,99064.72
2022-12-24T12:09:00.340Z,99059.84
2022-12-24T12:11:28.847Z,99059.91
2022-12-24T12:13:58.575Z,99058.63
2022-12-24T12:17:01.222Z,99054.69
2022-12-24T12:19:31.342Z,99053.63
2022-12-24T12:21:59.209Z,99052.47
2022-12-24T12:24:37.226Z,99054.47
2022-12-24T12:27:13.729Z,99052.63
2022-12-24T12:29:52.662Z,99059.28
2022-12-24T12:32:41.291Z,99070.88
2022-12-24T12:35:35.340Z,99075.22
2022-12-24T12:38:05.768Z,99080.19
2022-12-24T12:40:59.611Z,99073.56
2022-12-24T12:43:58.599Z,99086.03
2022-12-24T12:46:40.147Z,99091.94
2022-12-24T12:49:12.258Z,99091.13
2022-12-24T12:52:17.782Z,99085.03
2022-12-24T12:54:59.476Z,99083.22
2022-12-24T12:57:31.721Z,99080.91
2022-12-24T13:00:05.323Z,99089.97
2022-12-24T13:03:10.893Z,99090.34
2022-12-24T13:05:52.574Z,99092.97
2022-12-24T13:08:37.615Z,99093.72
2022-12-24T13:11:13.152Z,99092.59
2022-12-24T13:14:10.571Z,99093.28
2022-12-24T13:17:16.029Z,99082.94
2022-12-24T13:20:20.129Z,99086.59
2022-12-24T13:23:23.514Z,99082.25
2022-12-24T13:25:52.495Z,99090.19
2022-12-24T13:28:24.970Z,99104.00
2022-12-24T13:31:01.644Z,99104.47
2022-12-24T13:33:37.169Z,99110.50
2022-12-24T13:36:07.975Z,99113.19
2022-12-24T13:38:40.505Z,99117.00
2022-12-24T13:41:38.182Z,99117.97
2022-12-24T13:44:15.949Z,99126.03
2022-12-24T13:46:58.957Z,99127.88
2022-12-24T13:49:38.194Z,99127.41
2022-12-24T13:52:18.991Z,99132.63
2022-12-24T13:54:50.220Z,99126.31
2022-12-24T13:57:34.359Z,99128.31
2022-12-24T14:00:04.278Z,99131.16
2022-12-24T14:02:35.752Z,99127.88
2022-12-24T14:05:08.599Z,99132.31
2022-12-24T14:07:36.408Z,99140.13
2022-12-24T14:10:06.186Z,99131.91
2022-12-24T14:12:47.385Z,99142.13
2022-12-24T14:15:45.262Z,99136.16
2022-12-24T14:18:21.519Z,99140.00
2022-12-24T14:20:53.380Z,99132.25
2022-12-24T14:23:44.008Z,99133.69
2022-12-24T14:26:19.348Z,99134.41
2022-12-24T14:29:00.881Z,99138.66
2022-12-24T14:31:28.017Z,99150.69
2022-12-24T14:34:06.968Z,99150.44
2022-12-24T14:36:33.691Z,99154.69
2022-12-24T14:39:00.826Z,99157.81
2022-12-24T14:41:39.255Z,99158.38
2022-12-24T14:44:32.265Z,99169.97
2022-12-24T14:47:19.432Z,99180.16
2022-12-24T14:50:05.077Z,99182.13
2022-12-24T14:53:09.296Z,99174.53
2022-12-24T14:55:41.766Z,99167.22
2022-12-24T14:58:28.704Z,99168.31
2022-12-24T15:00:58.934Z,99176.50
2022-12-24T15:03:28.709Z,99178.34
2022-12-24T15:06:08.488Z,99184.41
2022-12-24T15:08:55.154Z,99186.53
2022-12-24T15:11:23.422Z,99195.84
2022-12-24T15:13:54.124Z,99207.97
2022-12-24T15:16:47.320Z,99213.03
2022-12-24T15:19:44.607Z,99203.44
2022-12-24T15:22:36.127Z,99228.66
2022-12-24T15:25:02.521Z,99229.34
2022-12-24T15:27:33.222Z,99226.63
2022-12-24T15:30:14.559Z,99234.53
2022-12-24T15:32:41.035Z,99234.66
2022-12-24T15:35:28.262Z,99238.22
2022-12-24T15:37:58.752Z,99237.34
2022-12-24T15:40:25.679Z,99241.03
2022-12-24T15:42:53.078Z,99242.13
2022-12-24T15:45:29.556Z,99246.78
2022-12-24T15:48:09.586Z,99249.47
2022-12-24T15:50:43.112Z,99235.63
2022-12-24T15:53:28.112Z,99247.44
2022-12-24T15:56:35.346Z,99243.81
2022-12-24T15:59:37.690Z,99247.75
2022-12-24T16:02:33.930Z,99263.22
2022-12-24T16:05:30.748Z,99248.97
2022-12-24T16:08:24.017Z,99246.22
2022-12-24T16:11:05.963Z,99252.25
2022-12-24T16:13:41.903Z,99250.28
2022-12-24T16:16:15.068Z,99257.56
2022-12-24T16:18:56.494Z,99258.56
2022-12-24T16:21:31.109Z,99261.19
2022-12-24T16:24:06.754Z,99256.38
2022-12-24T16:26:34.365Z,99251.41
2022-12-24T16:29:00.902Z,99252.13
2022-12-24T16:31:38.043Z,99250.56
2022-12-24T16:34:05.501Z,99250.94
2022-12-24T16:36:32.887Z,99251.94
2022-12-24T16:39:18.339Z,99244.16
2022-12-24T16:42:03.168Z,99241.03
2022-12-24T16:44:29.747Z,99239.59
2022-12-24T16:47:00.988Z,99241.06
2022-12-24T16:49:28.842Z,99245.94
2022-12-24T16:51:55.380Z,99262.97
2022-12-24T16:54:22.011Z,99263.56
2022-12-24T16:56:48.502Z,99269.47
2022-12-24T16:59:17.448Z,99271.81
2022-12-24T17:01:44.307Z,99278.06
2022-12-24T17:04:10.770Z,99280.03
2022-12-24T17:06:37.434Z,99274.69
2022-12-24T17:09:04.331Z,99276.91
2022-12-24T17:11:30.747Z,99273.84
2022-12-24T17:13:57.310Z,99272.41
2022-12-24T17:16:23.777Z,99282.72
2022-12-24T17:18:52.151Z,99285.97
2022-12-24T17:21:19.453Z,99280.03
2022-12-24T17:23:46.693Z,99284.59
2022-12-24T17:26:15.361Z,99288.56
2022-12-24T17:28:42.971Z,99277.81
2022-12-24T17:31:16.211Z,99282.81
2022-12-24T17:33:43.581Z,99276.88
2022-12-24T17:36:10.517Z,99283.69
2022-12-24T17:38:37.365Z,99289.91
2022-12-24T17:41:10.474Z,99285.69
2022-12-24T17:43:37.986Z,99285.41
2022-12-24T17:46:13.195Z,99283.56
2022-12-24T17:48:39.649Z,99284.56
2022-12-24T17:51:08.175Z,99284.63
2022-12-24T17:53:35.859Z,99281.44
2022-12-24T17:56:02.586Z,99279.88
2022-12-24T17:58:29.884Z,99299.31
2022-12-24T18:00:57.262Z,99299.81
2022-12-24T18:03:24.550Z,99292.72
2022-12-24T18:05:51.970Z,99287.13
2022-12-24T18:08:19.103Z,99294.50
2022-12-24T18:10:46.434Z,99299.13
2022-12-24T18:13:19.135Z,99296.34
2022-12-24T18:15:46.037Z,99300.78
2022-12-24T18:18:12.552Z,99288.97
2022-12-24T18:20:45.964Z,99305.47
2022-12-24T18:23:12.538Z,99308.53
2022-12-24T18:25:39.215Z,99319.63
2022-12-24T18:28:05.600Z,99317.75
2022-12-24T18:30:31.979Z,99316.75
2022-12-24T18:33:00.301Z,99317.41
2022-12-24T18:35:26.818Z,99320.47
2022-12-24T18:37:54.027Z,99321.72
2022-12-24T18:40:20.596Z,99325.63
2022-12-24T18:42:47.063Z,99323.31
2022-12-24T18:45:13.563Z,99321.91
2022-12-24T18:47:40.045Z,99316.47
2022-12-24T18:50:07.528Z,99324.28
2022-12-24T18:52:35.121Z,99322.34
2022-12-24T18:55:01.534Z,99322.59
2022-12-24T18:57:28.170Z,99315.28
2022-12-24T18:59:55.814Z,99319.31
2022-12-24T19:02:22.286Z,99310.34
2022-12-24T19:04:48.875Z,99300.13
2022-12-24T19:07:15.440Z,99296.44
2022-12-24T19:09:41.859Z,99298.03
2022-12-24T19:12:08.297Z,99299.47
2022-12-24T19:14:34.692Z,99291.06
2022-12-24T19:17:01.316Z,99290.78
2022-12-24T19:19:27.781Z,99292.88
2022-12-24T19:21:54.145Z,99297.72
2022-12-24T19:24:20.542Z,99283.03
2022-12-24T19:26:48.634Z,99285.25
2022-12-24T19:29:15.178Z,99283.03
2022-12-24T19:31:47.493Z,99303.69
2022-12-24T19:34:14.372Z,99314.44
2022-12-24T19:36:40.918Z,99315.16
2022-12-24T19:39:07.621Z,99313.78
2022-12-24T19:41:34.170Z,99320.38
2022-12-24T19:44:02.009Z,99327.81
2022-12-24T19:46:31.594Z,99329.69
2022-12-24T19:49:00.988Z,99325.69
2022-12-24T19:51:29.229Z,99322.59
2022-12-24T19:53:57.617Z,99316.47
2022-12-24T19:56:25.825Z,99325.72
2022-12-24T19:58:52.806Z,99337.78
2022-12-24T20:01:22.545Z,99336.66
2022-12-24T20:03:50.275Z,99339.34
2022-12-24T20:06:18.184Z,99333.66
2022-12-24T20:08:44.606Z,99324.28
2022-12-24T20:11:14.097Z,99326.50
2022-12-24T20:13:41.656Z,99322.84
2022-12-24T20:16:14.914Z,99330.47
2022-12-24T20:18:41.470Z,99344.31
2022-12-24T20:21:10.064Z,99349.06
2022-12-24T20:23:41.025Z,99350.00
2022-12-24T20:26:11.707Z,99365.09
2022-12-24T20:28:38.561Z,99373.13
2022-12-24T20:31:13.637Z,99358.56
2022-12-24T20:33:40.697Z,99350.34
2022-12-24T20:36:08.250Z,99336.63
2022-12-24T20:38:35.009Z,99345.72
2022-12-24T20:41:01.365Z,99344.63
2022-12-24T20:43:32.478Z,99333.13
2022-12-24T20:46:02.915Z,99334.44
2022-12-24T20:48:30.078Z,99330.47
2022-12-24T20:50:56.963Z,99333.97
2022-12-24T20:53:23.350Z,99345.13
2022-12-24T20:55:50.972Z,99336.63
2022-12-24T20:58:18.192Z,99338.22
2022-12-24T21:00:46.648Z,99344.53
2022-12-24T21:03:17.001Z,99342.56
2022-12-24T21:05:44.700Z,99334.19
2022-12-24T21:08:13.257Z,99337.50
2022-12-24T21:10:39.816Z,99341.38
2022-12-24T21:13:06.714Z,99355.75
2022-12-24T21:15:38.720Z,99363.88
2022-12-24T21:18:11.483Z,99367.75
2022-12-24T21:20:41.857Z,99366.91
2022-12-24T21:23:09.584Z,99360.25
2022-12-24T21:25:36.103Z,99360.84
2022-12-24T21:28:02.599Z,99354.53
2022-12-24T21:30:29.266Z,99359.16
2022-12-24T21:32:55.765Z,99358.81
2022-12-24T21:35:22.184Z,99364.50
2022-12-24T21:37:48.586Z,99363.16
2022-12-24T21:40:15.106Z,99369.34
2022-12-24T21:42:41.845Z,99356.84
2022-12-24T21:45:09.193Z,99344.81
2022-12-24T21:47:36.828Z,99354.78
2022-12-24T21:50:23.833Z,99353.59
2022-12-24T21:53:13.270Z,99355.88
2022-12-24T21:55:39.844Z,99355.88
2022-12-24T21:58:06.257Z,99361.56
2022-12-24T22:00:32.693Z,99368.38
2022-12-24T22:02:59.409Z,99358.28
2022-12-24T22:05:27.091Z,99368.44
2022-12-24T22:08:13.124Z,99367.09
2022-12-24T22:11:03.919Z,99366.13
2022-12-24T22:13:31.533Z,99350.81
2022-12-24T22:15:58.038Z,99354.16
2022-12-24T22:18:27.151Z,99353.75
2022-12-24T22:20:57.737Z,99344.41
2022-12-24T22:23:24.314Z,99348.50
2022-12-24T22:25:50.875Z,99364.78
2022-12-24T22:28:17.668Z,99351.38
2022-12-24T22:30:44.226Z,99349.22
2022-12-24T22:33:11.169Z,99356.88
2022-12-24T22:35:41.397Z,99338.72
2022-12-24T22:38:08.884Z,99330.63
2022-12-24T22:40:35.440Z,99346.91
2022-12-24T22:43:01.850Z,99347.47
2022-12-24T22:45:28.298Z,99342.31
2022-12-24T22:47:55.487Z,99335.56
2022-12-24T22:50:22.194Z,99324.84
2022-12-24T22:52:48.607Z,99331.63
2022-12-24T22:55:15.207Z,99319.44
2022-12-24T22:57:41.775Z,99311.53
2022-12-24T23:00:14.837Z,99321.66
2022-12-24T23:02:41.642Z,99334.63
2022-12-24T23:05:14.547Z,99329.41
2022-12-24T23:07:40.959Z,99318.84
2022-12-24T23:10:08.393Z,99328.00
2022-12-24T23:12:53.685Z,99327.25
2022-12-24T23:15:20.247Z,99324.69
2022-12-24T23:17:48.960Z,99323.94
2022-12-24T23:20:15.626Z,99317.66
2022-12-24T23:22:42.038Z,99309.31
2022-12-24T23:25:08.843Z,99299.91
2022-12-24T23:27:35.262Z,99303.78
2022-12-24T23:30:01.772Z,99297.72
2022-12-24T23:32:28.221Z,99298.50
2022-12-24T23:34:54.667Z,99299.25
2022-12-24T23:37:21.119Z,99292.47
2022-12-24T23:39:47.740Z,99281.41
2022-12-24T23:42:14.155Z,99280.78
2022-12-24T23:44:40.605Z,99279.13
2022-12-24T23:47:07.190Z,99271.34
2022-12-24T23:49:33.586Z,99275.88
2022-12-24T23:52:00.216Z,99276.94
2022-12-24T23:54:26.805Z,99277.25
2022-12-24T23:56:53.469Z,99288.53
2022-12-24T23:59:19.836Z,99278.75
